Transformer Ol — 3EZY5 — position and weather

sailwx.info

Track history (hours):
 
Tides and Currents Weather Stations Pressure Air Temp Water Temp Dewpoint Dewpoint Depression Visibility Wind Speed Wind Dir Waves Ship Positions

Transformer Ol

Last reported at 2016-May-24 15:18 UTC. Time now 2016-May-31 02:09 UTC.
Position N 01°54' E 102°20'.

Length 169 m; draft 8.6 m.

Type: Cargo ship. MMSI: 372789000.

Date/timePositionNaut miles runAvg speedWind from/ knotsBaromVisibWave heightAir tempDewpointWater temp
2016-May-24 15:18N 01°54' E 102°20'911.6
2016-May-24 14:33N 01°51' E 102°28'1411.3
2016-May-24 13:21N 01°45' E 102°40'7212.4
2016-May-24 07:33N 01°09' E 103°43'10 9.9
2016-May-24 06:33N 01°13' E 103°52'4 3.7
2016-May-24 05:30N 01°17' E 103°53'0 0.1
2016-May-24 04:24N 01°17' E 103°53'0 0.1
2016-May-24 03:30N 01°16' E 103°53'0 0.0
2016-May-24 02:31N 01°16' E 103°53'0 0.0
2016-May-24 01:30N 01°16' E 103°53'0 0.0
2016-May-24 00:30N 01°16' E 103°53'0 0.1
2016-May-23 23:33N 01°17' E 103°53'0 0.0
2016-May-23 22:24N 01°17' E 103°53'0 0.0
2016-May-23 21:15N 01°17' E 103°53'0 0.1
2016-May-23 20:30N 01°17' E 103°53'0 0.1
2016-May-23 19:30N 01°17' E 103°53'2 2.3
2016-May-23 18:33N 01°17' E 103°55'3 3.1
2016-May-23 17:32N 01°15' E 103°58'8 7.6
2016-May-23 16:32N 01°16' E 104°06'  
2016-May-18 13:21N 21°47' E 118°57'1212.0
2016-May-18 12:20N 21°58' E 119°03'2712.8
2016-May-18 10:12N 22°21' E 119°19'812.3
2016-May-18 09:33N 22°28' E 119°23'  
2016-May-16 03:26N 31°19' E 121°43'8 9.3
2016-May-16 02:32N 31°23' E 121°35'9 9.5
2016-May-16 01:33N 31°28' E 121°26'3 2.9
2016-May-16 00:29N 31°30' E 121°23'0 0.0
2016-May-15 23:29N 31°30' E 121°23'0 0.0
2016-May-15 22:29N 31°30' E 121°23'0 0.0
2016-May-15 21:29N 31°30' E 121°23'0 0.0
2016-May-15 20:29N 31°30' E 121°23'0 0.0
2016-May-15 19:29N 31°30' E 121°23'0 0.0
2016-May-15 18:29N 31°30' E 121°23'0 0.0
2016-May-15 17:29N 31°30' E 121°23'0 0.0
2016-May-15 16:29N 31°30' E 121°23'0 0.0
2016-May-15 15:32N 31°30' E 121°23'0 0.0
2016-May-15 14:29N 31°30' E 121°23'0 0.0
2016-May-15 13:29N 31°30' E 121°23'0 0.0
2016-May-15 12:29N 31°30' E 121°23'0 0.0
2016-May-15 11:29N 31°30' E 121°23'0 0.0
2016-May-15 10:23N 31°30' E 121°23'0 0.0
2016-May-15 09:32N 31°30' E 121°23'0 0.0
2016-May-15 08:29N 31°30' E 121°23'0 0.0
2016-May-15 07:29N 31°30' E 121°23'0 0.0
2016-May-15 06:29N 31°30' E 121°23'0 0.0
2016-May-15 05:32N 31°30' E 121°23'0 0.0
2016-May-15 04:29N 31°30' E 121°23'0 0.0
2016-May-15 03:23N 31°30' E 121°23'0 0.0
2016-May-15 02:29N 31°30' E 121°23'0 0.0
2016-May-15 01:29N 31°30' E 121°23'0 0.0
2016-May-15 00:29N 31°30' E 121°23'0 0.0
2016-May-14 23:29N 31°30' E 121°23'1 1.3
2016-May-14 22:34N 31°31' E 121°23'1 0.9
2016-May-14 21:33N 31°30' E 121°24'0 0.1
2016-May-14 20:33N 31°30' E 121°24'0 0.0
2016-May-14 19:33N 31°30' E 121°24'0 0.0
2016-May-14 18:33N 31°30' E 121°24'0 0.0
2016-May-14 17:33N 31°30' E 121°24'0 0.0
2016-May-14 16:33N 31°30' E 121°24'0 0.0
2016-May-14 15:33N 31°30' E 121°24'  
Track history (hours):
 
Tides and Currents Weather Stations Pressure Air Temp Water Temp Dewpoint Dewpoint Depression Visibility Wind Speed Wind Dir Waves Ship Positions

Transformer Ol

Last reported at 2016-May-24 15:18 UTC. Time now 2016-May-31 02:09 UTC.
Position N 01°54' E 102°20'.

Length 169 m; draft 8.6 m.

Type: Cargo ship. MMSI: 372789000.

Date/timePositionNaut miles runAvg speedWind from/ knotsBaromVisibWave heightAir tempDewpointWater temp
2016-May-24 15:18N 01°54' E 102°20'911.6
2016-May-24 14:33N 01°51' E 102°28'1411.3
2016-May-24 13:21N 01°45' E 102°40'7212.4
2016-May-24 07:33N 01°09' E 103°43'10 9.9
2016-May-24 06:33N 01°13' E 103°52'4 3.7
2016-May-24 05:30N 01°17' E 103°53'0 0.1
2016-May-24 04:24N 01°17' E 103°53'0 0.1
2016-May-24 03:30N 01°16' E 103°53'0 0.0
2016-May-24 02:31N 01°16' E 103°53'0 0.0
2016-May-24 01:30N 01°16' E 103°53'0 0.0
2016-May-24 00:30N 01°16' E 103°53'0 0.1
2016-May-23 23:33N 01°17' E 103°53'0 0.0
2016-May-23 22:24N 01°17' E 103°53'0 0.0
2016-May-23 21:15N 01°17' E 103°53'0 0.1
2016-May-23 20:30N 01°17' E 103°53'0 0.1
2016-May-23 19:30N 01°17' E 103°53'2 2.3
2016-May-23 18:33N 01°17' E 103°55'3 3.1
2016-May-23 17:32N 01°15' E 103°58'8 7.6
2016-May-23 16:32N 01°16' E 104°06'  
2016-May-18 13:21N 21°47' E 118°57'1212.0
2016-May-18 12:20N 21°58' E 119°03'2712.8
2016-May-18 10:12N 22°21' E 119°19'812.3
2016-May-18 09:33N 22°28' E 119°23'  
2016-May-16 03:26N 31°19' E 121°43'8 9.3
2016-May-16 02:32N 31°23' E 121°35'9 9.5
2016-May-16 01:33N 31°28' E 121°26'3 2.9
2016-May-16 00:29N 31°30' E 121°23'0 0.0
2016-May-15 23:29N 31°30' E 121°23'0 0.0
2016-May-15 22:29N 31°30' E 121°23'0 0.0
2016-May-15 21:29N 31°30' E 121°23'0 0.0
2016-May-15 20:29N 31°30' E 121°23'0 0.0
2016-May-15 19:29N 31°30' E 121°23'0 0.0
2016-May-15 18:29N 31°30' E 121°23'0 0.0
2016-May-15 17:29N 31°30' E 121°23'0 0.0
2016-May-15 16:29N 31°30' E 121°23'0 0.0
2016-May-15 15:32N 31°30' E 121°23'0 0.0
2016-May-15 14:29N 31°30' E 121°23'0 0.0
2016-May-15 13:29N 31°30' E 121°23'0 0.0
2016-May-15 12:29N 31°30' E 121°23'0 0.0
2016-May-15 11:29N 31°30' E 121°23'0 0.0
2016-May-15 10:23N 31°30' E 121°23'0 0.0
2016-May-15 09:32N 31°30' E 121°23'0 0.0
2016-May-15 08:29N 31°30' E 121°23'0 0.0
2016-May-15 07:29N 31°30' E 121°23'0 0.0
2016-May-15 06:29N 31°30' E 121°23'0 0.0
2016-May-15 05:32N 31°30' E 121°23'0 0.0
2016-May-15 04:29N 31°30' E 121°23'0 0.0
2016-May-15 03:23N 31°30' E 121°23'0 0.0
2016-May-15 02:29N 31°30' E 121°23'0 0.0
2016-May-15 01:29N 31°30' E 121°23'0 0.0
2016-May-15 00:29N 31°30' E 121°23'0 0.0
2016-May-14 23:29N 31°30' E 121°23'1 1.3
2016-May-14 22:34N 31°31' E 121°23'1 0.9
2016-May-14 21:33N 31°30' E 121°24'0 0.1
2016-May-14 20:33N 31°30' E 121°24'0 0.0
2016-May-14 19:33N 31°30' E 121°24'0 0.0
2016-May-14 18:33N 31°30' E 121°24'0 0.0
2016-May-14 17:33N 31°30' E 121°24'0 0.0
2016-May-14 16:33N 31°30' E 121°24'0 0.0
2016-May-14 15:33N 31°30' E 121°24'  

Dump ship's entire track history